Logan — WDB3865 — position and weather

sailwx.info

Track history (hours):
 
Tides and Currents Weather Stations Pressure Air Temp Water Temp Dewpoint Dewpoint Depression Visibility Wind Speed Wind Dir Waves Ship Positions

Logan

Owner: PACIFIC TUGBOAT SERVICE INC, SAN DIEGO, CA. More information available from US FCC via Universal Licensing System and Coast Guard Vessel Documentation Center.

Last reported at 2017-Oct-04 19:28 UTC. Time now 2017-Oct-16 22:37 UTC.
Position N 32°41' W 117°08'.
Warning: this ship's position is 12 days out of date.

Type: Ship. MMSI: 366892160.

Date/timePositionNaut miles runAvg speedWind from/ knotsBaromVisibWave heightAir tempDewpointWater temp
2017-Oct-04 19:28N 32°41' W 117°08'1 0.1
2017-Oct-03 19:47N 32°40' W 117°08'2 2.6
2017-Oct-03 18:59N 32°41' W 117°09'3 0.1
2017-Oct-02 16:22N 32°38' W 117°07'1 3.9
2017-Oct-02 16:00N 32°40' W 117°08'2 4.7
2017-Oct-02 15:29N 32°41' W 117°09'3 5.3
2017-Oct-02 15:00N 32°43' W 117°12'2 4.8
2017-Oct-02 14:29N 32°42' W 117°14'1 2.6
2017-Oct-02 14:00N 32°43' W 117°13'  
Track history (hours):
 
Tides and Currents Weather Stations Pressure Air Temp Water Temp Dewpoint Dewpoint Depression Visibility Wind Speed Wind Dir Waves Ship Positions

Logan

Owner: PACIFIC TUGBOAT SERVICE INC, SAN DIEGO, CA. More information available from US FCC via Universal Licensing System and Coast Guard Vessel Documentation Center.

Last reported at 2017-Oct-04 19:28 UTC. Time now 2017-Oct-16 22:37 UTC.
Position N 32°41' W 117°08'.
Warning: this ship's position is 12 days out of date.

Type: Ship. MMSI: 366892160.

Date/timePositionNaut miles runAvg speedWind from/ knotsBaromVisibWave heightAir tempDewpointWater temp
2017-Oct-04 19:28N 32°41' W 117°08'1 0.1
2017-Oct-03 19:47N 32°40' W 117°08'2 2.6
2017-Oct-03 18:59N 32°41' W 117°09'3 0.1
2017-Oct-02 16:22N 32°38' W 117°07'1 3.9
2017-Oct-02 16:00N 32°40' W 117°08'2 4.7
2017-Oct-02 15:29N 32°41' W 117°09'3 5.3
2017-Oct-02 15:00N 32°43' W 117°12'2 4.8
2017-Oct-02 14:29N 32°42' W 117°14'1 2.6
2017-Oct-02 14:00N 32°43' W 117°13'  

Dump ship's entire track history